Time;durP1;ratioP1;P1;durP2;ratioP2;P2;SDS_P1;SDS_P2;PMS_P1;PMS_P2;Temp;Humidity;BMP_temperature;BMP_pressure;BME280_temperature;BME280_humidity;BME280_pressure;Samples;Min_cycle;Max_cycle;Signal;HPM_P1;HPM_P2
2021/06/15 00:00:05;;;;;;;;;;;;;;;16.93;50.84;99470.69;5153246;27;20014;-36
2021/06/15 00:02:31;;;;;;;;;;;;;;;16.67;51.21;99466.06;5153397;27;20343;-36
2021/06/15 00:04:56;;;;;;;;;;;;;;;16.78;50.70;99468.63;5153664;27;19932;-37
2021/06/15 00:07:21;;;;;;;;;;;;;;;16.50;52.51;99456.19;5153182;27;19946;-37
2021/06/15 00:09:46;;;;;;;;;;;;;;;16.56;52.55;99462.44;5153353;27;20298;-37
2021/06/15 00:12:13;;;;;;;;;;;;;;;16.40;53.02;99467.59;5153323;27;19914;-37
2021/06/15 00:14:38;;;;;;;;;;;;;;;16.58;52.84;99461.13;5153097;27;19923;-37
2021/06/15 00:17:04;;;;;;;;;;;;;;;16.42;52.88;99451.25;5153078;27;19919;-36
2021/06/15 00:19:29;;;;;;;;;;;;;;;16.41;52.35;99454.97;5153150;27;19938;-37
2021/06/15 00:21:54;;;;;;;;;;;;;;;16.67;52.36;99458.00;5143700;27;19911;-36
2021/06/15 00:24:20;;;;;;;;;;;;;;;16.59;53.26;99451.19;5132521;27;19919;-37
2021/06/15 00:26:45;;;;;;;;;;;;;;;16.57;53.38;99456.00;5132205;27;19911;-36
2021/06/15 00:29:10;;;;;;;;;;;;;;;16.09;54.58;99430.66;5132359;27;19965;-36
2021/06/15 00:31:35;;;;;;;;;;;;;;;16.27;53.99;99465.28;5132223;27;19954;-36
2021/06/15 00:34:01;;;;;;;;;;;;;;;16.66;53.28;99472.47;5132196;27;20370;-37
2021/06/15 00:36:26;;;;;;;;;;;;;;;16.51;53.61;99468.56;5132350;27;19919;-36
2021/06/15 00:38:51;;;;;;;;;;;;;;;16.46;54.32;99468.50;5132037;27;19965;-36
2021/06/15 00:41:17;;;;;;;;;;;;;;;16.64;54.09;99471.94;5132023;27;20055;-36
2021/06/15 00:43:42;;;;;;;;;;;;;;;16.00;55.28;99468.66;5131868;27;19970;-37
2021/06/15 00:46:07;;;;;;;;;;;;;;;16.04;55.34;99474.34;5132083;27;19911;-36
2021/06/15 00:48:34;;;;;;;;;;;;;;;16.09;54.90;99479.81;5143972;27;20001;-37
2021/06/15 00:50:59;;;;;;;;;;;;;;;16.41;54.95;99479.97;5139891;27;20063;-35
2021/06/15 00:53:25;;;;;;;;;;;;;;;16.27;54.40;99476.00;5131994;27;19950;-38
2021/06/15 00:55:51;;;;;;;;;;;;;;;15.85;55.74;99479.16;5131685;27;20010;-37
2021/06/15 00:58:17;;;;;;;;;;;;;;;16.03;56.06;99476.22;5131675;27;19918;-37
2021/06/15 01:00:42;;;;;;;;;;;;;;;15.83;55.90;99479.41;5131992;27;19912;-37
2021/06/15 01:03:07;;;;;;;;;;;;;;;16.25;55.64;99480.81;5131163;27;19912;-36
2021/06/15 01:05:32;;;;;;;;;;;;;;;16.64;53.99;99478.13;5130208;27;19912;-37
2021/06/15 01:08:03;;;;;;;;;;;;;;;16.68;54.09;99481.94;5131676;27;19998;-36
2021/06/15 01:10:47;;;;;;;;;;;;;;;16.52;54.09;99474.72;5131416;27;19911;-38
2021/06/15 01:13:31;;;;;;;;;;;;;;;16.49;54.32;99470.69;5131114;27;20427;-36
2021/06/15 01:16:02;;;;;;;;;;;;;;;16.45;54.32;99474.09;5130630;27;19923;-36
2021/06/15 01:18:28;;;;;;;;;;;;;;;16.52;53.83;99475.53;5131535;27;19963;-37
2021/06/15 01:20:55;;;;;;;;;;;;;;;16.88;54.38;99476.00;5129917;27;19951;-38
2021/06/15 01:23:36;;;;;;;;;;;;;;;17.04;53.42;99474.31;5131432;27;19919;-36
2021/06/15 01:26:19;;;;;;;;;;;;;;;16.63;54.42;99481.88;5130913;27;20281;-37
2021/06/15 01:28:44;;;;;;;;;;;;;;;17.02;52.24;99476.47;5131129;28;19912;-37
2021/06/15 01:31:19;;;;;;;;;;;;;;;16.87;55.57;99473.56;5131344;28;20009;-37
2021/06/15 01:33:46;;;;;;;;;;;;;;;16.19;53.91;99481.81;5130023;28;19918;-37
2021/06/15 01:36:12;;;;;;;;;;;;;;;16.30;54.57;99477.41;5112639;28;19916;-37
2021/06/15 01:38:38;;;;;;;;;;;;;;;16.82;52.94;99477.03;5131130;27;19921;-36
2021/06/15 01:41:13;;;;;;;;;;;;;;;16.64;52.69;99475.44;5130056;28;19912;-37
2021/06/15 01:43:45;;;;;;;;;;;;;;;16.89;51.64;99466.09;5131143;27;19916;-37
2021/06/15 01:46:11;;;;;;;;;;;;;;;16.81;52.00;99461.91;5131079;27;19915;-36
2021/06/15 01:48:42;;;;;;;;;;;;;;;17.22;51.96;99469.66;5130986;27;20460;-37
2021/06/15 01:51:08;;;;;;;;;;;;;;;17.11;50.68;99464.16;5133509;27;19912;-37
2021/06/15 01:53:34;;;;;;;;;;;;;;;16.97;51.34;99481.75;5133162;27;19918;-37
2021/06/15 01:56:01;;;;;;;;;;;;;;;17.04;50.99;99477.00;5133415;27;19921;-37
2021/06/15 01:58:27;;;;;;;;;;;;;;;16.75;52.39;99477.19;5151741;27;20406;-36
2021/06/15 02:00:53;;;;;;;;;;;;;;;16.88;52.21;99469.84;5133158;27;19946;-36
2021/06/15 02:03:18;;;;;;;;;;;;;;;16.94;52.37;99472.31;5133312;27;19949;-37
2021/06/15 02:05:45;;;;;;;;;;;;;;;16.91;51.37;99470.16;5151758;27;20343;-37
2021/06/15 02:08:22;;;;;;;;;;;;;;;16.72;52.54;99479.56;5133204;27;20009;-37
2021/06/15 02:10:48;;;;;;;;;;;;;;;16.79;51.70;99469.41;5151693;27;19957;-37
2021/06/15 02:13:13;;;;;;;;;;;;;;;16.44;53.01;99472.50;5151423;27;19939;-37
2021/06/15 02:15:39;;;;;;;;;;;;;;;16.37;53.29;99476.19;5135538;27;19923;-38
2021/06/15 02:18:04;;;;;;;;;;;;;;;16.80;53.07;99471.06;5136774;27;19915;-38
2021/06/15 02:20:30;;;;;;;;;;;;;;;16.85;51.74;99471.16;5136552;27;19915;-38
2021/06/15 02:22:56;;;;;;;;;;;;;;;16.54;54.44;99468.03;5136676;27;19918;-37
2021/06/15 02:25:25;;;;;;;;;;;;;;;16.82;52.65;99471.66;5133180;27;19911;-38
2021/06/15 02:27:50;;;;;;;;;;;;;;;17.04;51.16;99470.81;5134234;27;20018;-36
2021/06/15 02:30:16;;;;;;;;;;;;;;;17.37;50.46;99464.44;5134306;27;19911;-36
2021/06/15 02:32:41;;;;;;;;;;;;;;;17.18;51.34;99472.03;5134510;27;19911;-37
2021/06/15 02:35:07;;;;;;;;;;;;;;;16.99;51.53;99471.56;5133292;27;19919;-37
2021/06/15 02:37:37;;;;;;;;;;;;;;;16.84;50.98;99468.72;5134380;27;19912;-37
2021/06/15 02:40:03;;;;;;;;;;;;;;;17.12;50.76;99473.88;5134455;27;19920;-37
2021/06/15 02:42:29;;;;;;;;;;;;;;;17.35;50.25;99477.31;5134466;27;20351;-37
2021/06/15 02:44:56;;;;;;;;;;;;;;;17.00;51.33;99482.06;5134315;27;19968;-37
2021/06/15 02:47:21;;;;;;;;;;;;;;;16.94;51.66;99482.25;5134338;27;19960;-37
2021/06/15 02:49:57;;;;;;;;;;;;;;;16.78;52.68;99486.63;5133033;27;19911;-37
2021/06/15 02:52:39;;;;;;;;;;;;;;;17.24;51.33;99491.72;5123330;27;19918;-37
2021/06/15 02:55:04;;;;;;;;;;;;;;;17.34;51.33;99484.59;5134145;27;19911;-37
2021/06/15 02:57:30;;;;;;;;;;;;;;;17.09;51.08;99493.19;5134086;27;19919;-37
2021/06/15 02:59:55;;;;;;;;;;;;;;;16.81;52.11;99496.84;5134204;27;19922;-37
2021/06/15 03:02:22;;;;;;;;;;;;;;;17.26;51.91;99498.47;5115340;27;20410;-37
2021/06/15 03:04:47;;;;;;;;;;;;;;;17.06;51.57;99498.25;5134106;27;19933;-37
2021/06/15 03:07:13;;;;;;;;;;;;;;;17.44;50.59;99489.25;5133784;27;20375;-37
2021/06/15 03:09:38;;;;;;;;;;;;;;;17.20;51.42;99491.41;5133680;27;19980;-37
2021/06/15 03:12:11;;;;;;;;;;;;;;;17.04;54.67;99495.00;5119498;27;19915;-36
2021/06/15 03:14:36;;;;;;;;;;;;;;;17.13;52.57;99506.94;5135964;27;19950;-37
2021/06/15 03:17:03;;;;;;;;;;;;;;;16.97;53.07;99503.25;5155252;27;19961;-37
2021/06/15 03:19:34;;;;;;;;;;;;;;;17.41;53.00;99495.13;5154629;27;19911;-37
2021/06/15 03:22:04;;;;;;;;;;;;;;;17.15;51.63;99502.09;5144561;27;19999;-37
2021/06/15 03:24:31;;;;;;;;;;;;;;;17.62;53.47;99498.00;5134236;27;19911;-37
2021/06/15 03:26:58;;;;;;;;;;;;;;;17.68;53.96;99486.22;5115293;27;19990;-38
2021/06/15 03:29:24;;;;;;;;;;;;;;;17.57;51.10;99498.75;5133647;27;19911;-38
2021/06/15 03:31:50;;;;;;;;;;;;;;;17.95;50.37;99494.25;5115123;27;19922;-38
2021/06/15 03:34:16;;;;;;;;;;;;;;;17.58;51.40;99509.25;5134266;27;19919;-37
2021/06/15 03:36:41;;;;;;;;;;;;;;;17.69;51.20;99514.75;5114449;27;19959;-38
2021/06/15 03:39:06;;;;;;;;;;;;;;;17.70;50.98;99519.84;5133549;27;19949;-37
2021/06/15 03:41:32;;;;;;;;;;;;;;;17.88;49.72;99512.53;5133629;27;19950;-37
2021/06/15 03:43:58;;;;;;;;;;;;;;;18.14;50.20;99516.19;5133560;27;19911;-37
2021/06/15 03:46:23;;;;;;;;;;;;;;;17.90;50.03;99516.56;5132117;27;20315;-37
2021/06/15 03:48:49;;;;;;;;;;;;;;;17.71;51.07;99526.06;5131978;27;20367;-37
2021/06/15 03:51:18;;;;;;;;;;;;;;;17.48;51.41;99519.94;5133677;27;19919;-37
2021/06/15 03:53:44;;;;;;;;;;;;;;;17.51;51.31;99516.72;5132335;27;19983;-37
2021/06/15 03:56:09;;;;;;;;;;;;;;;17.57;51.10;99518.41;5131720;27;20382;-38
2021/06/15 03:58:35;;;;;;;;;;;;;;;17.83;49.29;99499.78;5131775;27;20386;-37
2021/06/15 04:01:01;;;;;;;;;;;;;;;18.06;49.72;99514.78;5132908;27;19968;-37
2021/06/15 04:03:26;;;;;;;;;;;;;;;18.69;48.99;99514.91;5132019;27;19911;-37
2021/06/15 04:05:53;;;;;;;;;;;;;;;19.23;47.12;99511.09;5131411;27;19968;-37
2021/06/15 04:08:19;;;;;;;;;;;;;;;19.34;46.81;99510.03;5131615;27;19918;-37
2021/06/15 04:10:45;;;;;;;;;;;;;;;19.67;46.18;99502.50;5131408;27;20038;-38
2021/06/15 04:13:10;;;;;;;;;;;;;;;19.17;47.50;99506.75;5131518;27;19937;-37
2021/06/15 04:15:35;;;;;;;;;;;;;;;19.43;46.49;99499.50;5132445;27;20455;-37
2021/06/15 04:18:01;;;;;;;;;;;;;;;19.68;46.44;99500.63;5152186;27;19915;-37
2021/06/15 04:20:30;;;;;;;;;;;;;;;19.70;45.92;99502.00;5153361;27;20537;-36
2021/06/15 04:22:56;;;;;;;;;;;;;;;20.24;44.71;99497.91;5116285;27;20428;-37
2021/06/15 04:25:26;;;;;;;;;;;;;;;19.96;45.90;99498.50;5132472;27;19915;-37
2021/06/15 04:27:51;;;;;;;;;;;;;;;20.46;44.30;99505.69;5113291;27;19972;-36
2021/06/15 04:30:18;;;;;;;;;;;;;;;20.74;43.97;99510.78;5131968;27;20014;-39
2021/06/15 04:32:45;;;;;;;;;;;;;;;19.91;45.07;99513.63;5132479;27;19995;-38
2021/06/15 04:35:10;;;;;;;;;;;;;;;20.37;45.95;99518.16;5113809;27;19915;-37
2021/06/15 04:37:36;;;;;;;;;;;;;;;20.19;45.54;99524.13;5131198;27;20043;-37
2021/06/15 04:40:08;;;;;;;;;;;;;;;20.99;44.21;99531.50;5132170;27;20306;-37
2021/06/15 04:42:41;;;;;;;;;;;;;;;20.75;43.93;99529.41;5113881;27;19911;-37
2021/06/15 04:45:07;;;;;;;;;;;;;;;20.46;44.69;99527.31;5131944;27;19975;-38
2021/06/15 04:47:34;;;;;;;;;;;;;;;20.94;44.09;99523.41;5131269;27;19918;-36
2021/06/15 04:50:00;;;;;;;;;;;;;;;21.35;43.21;99528.59;5131466;27;19922;-36
2021/06/15 04:52:25;;;;;;;;;;;;;;;21.20;43.96;99527.59;5131068;27;19919;-38
2021/06/15 04:54:51;;;;;;;;;;;;;;;20.88;44.14;99538.84;5131089;27;20356;-38
2021/06/15 04:57:21;;;;;;;;;;;;;;;20.77;43.84;99531.84;5130980;27;19912;-37
2021/06/15 04:59:47;;;;;;;;;;;;;;;21.17;43.59;99530.03;5130756;27;19915;-37
2021/06/15 05:02:12;;;;;;;;;;;;;;;20.89;43.65;99532.34;5130853;27;19915;-38
2021/06/15 05:04:38;;;;;;;;;;;;;;;20.62;44.56;99538.94;5112859;27;19922;-37
2021/06/15 05:07:03;;;;;;;;;;;;;;;20.77;44.12;99539.94;5112383;27;19911;-37
2021/06/15 05:09:28;;;;;;;;;;;;;;;20.26;45.63;99532.78;5131028;27;19919;-36
2021/06/15 05:11:54;;;;;;;;;;;;;;;20.11;46.29;99544.41;5130777;27;20349;-38
2021/06/15 05:14:20;;;;;;;;;;;;;;;20.27;47.42;99539.78;5125553;27;19923;-37
2021/06/15 05:16:45;;;;;;;;;;;;;;;20.82;45.22;99546.16;5102470;27;19920;-37
2021/06/15 05:19:10;;;;;;;;;;;;;;;20.09;45.98;99547.38;5110466;28;20061;-38
2021/06/15 05:21:44;;;;;;;;;;;;;;;20.26;45.91;99544.38;5117264;27;19918;-37
2021/06/15 05:24:12;;;;;;;;;;;;;;;20.57;44.46;99552.41;5130949;27;19911;-36
2021/06/15 05:26:37;;;;;;;;;;;;;;;20.94;44.53;99548.53;5131281;27;19965;-37
2021/06/15 05:29:02;;;;;;;;;;;;;;;20.08;46.71;99548.44;5130849;27;19945;-37
2021/06/15 05:31:27;;;;;;;;;;;;;;;21.05;45.43;99543.91;5130809;28;20068;-38
2021/06/15 05:33:53;;;;;;;;;;;;;;;21.50;43.43;99555.59;5131070;28;19919;-37
2021/06/15 05:36:18;;;;;;;;;;;;;;;20.73;43.84;99547.00;5130991;28;19922;-37
2021/06/15 05:38:43;;;;;;;;;;;;;;;21.20;43.46;99557.34;5131012;27;19911;-36
2021/06/15 05:41:09;;;;;;;;;;;;;;;21.02;43.58;99560.69;5112495;28;20379;-37
2021/06/15 05:43:34;;;;;;;;;;;;;;;21.32;43.83;99567.84;5130849;28;19960;-37
2021/06/15 05:46:00;;;;;;;;;;;;;;;21.64;43.48;99566.59;5130924;28;19985;-37
2021/06/15 05:48:25;;;;;;;;;;;;;;;21.76;42.78;99561.66;5131879;27;19962;-37
2021/06/15 05:50:50;;;;;;;;;;;;;;;22.39;41.64;99562.75;5134930;27;19922;-37
2021/06/15 05:53:16;;;;;;;;;;;;;;;22.28;41.22;99542.31;5134705;27;19927;-38
2021/06/15 05:55:41;;;;;;;;;;;;;;;22.83;40.38;99551.72;5134573;27;19918;-38
2021/06/15 05:58:07;;;;;;;;;;;;;;;22.99;40.32;99549.63;5116110;27;19922;-38
2021/06/15 06:00:32;;;;;;;;;;;;;;;23.32;39.62;99548.97;5134863;27;20386;-37
2021/06/15 06:02:58;;;;;;;;;;;;;;;23.46;39.28;99551.78;5135711;27;19968;-39
2021/06/15 06:08:09;;;;;;;;;;;;;;;23.81;37.96;99548.53;5135739;27;19917;-37
2021/06/15 06:10:35;;;;;;;;;;;;;;;23.31;39.19;99545.44;5135132;27;19920;-38
2021/06/15 06:13:01;;;;;;;;;;;;;;;23.74;38.30;99555.41;5134767;27;19915;-36
2021/06/15 06:15:26;;;;;;;;;;;;;;;23.67;39.08;99544.94;5134087;27;19923;-37
2021/06/15 06:17:52;;;;;;;;;;;;;;;24.46;37.75;99540.63;5134773;27;19915;-39
2021/06/15 06:20:18;;;;;;;;;;;;;;;24.72;37.03;99530.91;5117137;27;19911;-36
2021/06/15 06:22:44;;;;;;;;;;;;;;;24.59;37.33;99537.94;5134818;27;20373;-37
2021/06/15 06:25:09;;;;;;;;;;;;;;;24.22;37.90;99541.63;5134965;27;20324;-37
2021/06/15 06:27:35;;;;;;;;;;;;;;;24.47;37.42;99551.22;5134714;27;19911;-37
2021/06/15 06:30:00;;;;;;;;;;;;;;;24.68;37.09;99543.50;5134183;27;19917;-37
2021/06/15 06:32:25;;;;;;;;;;;;;;;23.85;38.19;99545.22;5134852;27;19998;-37
2021/06/15 06:34:51;;;;;;;;;;;;;;;24.26;38.05;99542.63;5134732;27;20367;-37
2021/06/15 06:37:16;;;;;;;;;;;;;;;25.16;36.47;99534.09;5134323;27;19919;-37
2021/06/15 06:39:42;;;;;;;;;;;;;;;25.84;35.27;99542.38;5134605;27;19942;-37
2021/06/15 06:42:07;;;;;;;;;;;;;;;25.40;36.27;99531.13;5134430;27;19911;-37
2021/06/15 06:44:32;;;;;;;;;;;;;;;25.90;34.99;99533.75;5133950;27;19912;-37
2021/06/15 06:46:58;;;;;;;;;;;;;;;26.57;34.74;99531.22;5134011;27;19922;-38
2021/06/15 06:49:23;;;;;;;;;;;;;;;25.72;35.33;99530.09;5133973;27;20271;-38
2021/06/15 06:51:48;;;;;;;;;;;;;;;25.82;35.05;99536.44;5134227;27;19939;-37
2021/06/15 06:54:14;;;;;;;;;;;;;;;25.58;35.73;99534.78;5115658;27;19961;-37
2021/06/15 06:56:39;;;;;;;;;;;;;;;25.78;35.12;99540.88;5134304;27;19922;-37
2021/06/15 06:59:04;;;;;;;;;;;;;;;24.39;37.17;99535.59;5133992;27;19976;-38
2021/06/15 07:01:29;;;;;;;;;;;;;;;23.59;38.55;99530.09;5133258;27;20035;-38
2021/06/15 07:03:55;;;;;;;;;;;;;;;24.89;37.35;99524.84;5134090;27;19998;-37
2021/06/15 07:06:20;;;;;;;;;;;;;;;25.66;35.31;99525.88;5134196;27;19926;-38
2021/06/15 07:08:45;;;;;;;;;;;;;;;25.56;35.51;99520.69;5133933;27;19911;-38
2021/06/15 07:11:11;;;;;;;;;;;;;;;25.08;36.11;99521.19;5115300;27;19980;-37
2021/06/15 07:13:36;;;;;;;;;;;;;;;24.08;37.78;99527.97;5133687;27;20003;-37
2021/06/15 07:16:01;;;;;;;;;;;;;;;23.70;38.87;99527.22;5137977;27;19927;-37
2021/06/15 07:18:27;;;;;;;;;;;;;;;24.25;37.88;99518.44;5154370;27;20351;-38
2021/06/15 07:20:52;;;;;;;;;;;;;;;24.82;37.09;99524.44;5153283;27;20002;-37
2021/06/15 07:23:17;;;;;;;;;;;;;;;24.90;36.64;99518.31;5133786;27;19950;-37
2021/06/15 07:25:43;;;;;;;;;;;;;;;23.98;38.73;99517.28;5114793;27;20346;-37
2021/06/15 07:28:08;;;;;;;;;;;;;;;24.98;37.43;99517.59;5133279;27;20212;-37
2021/06/15 07:30:33;;;;;;;;;;;;;;;24.53;37.71;99528.28;5133444;27;19923;-37
2021/06/15 07:32:59;;;;;;;;;;;;;;;24.65;37.21;99529.69;5133600;27;19912;-39
2021/06/15 07:35:25;;;;;;;;;;;;;;;25.50;36.31;99532.81;5133740;27;19915;-36
2021/06/15 07:37:50;;;;;;;;;;;;;;;25.13;36.06;99526.50;5133529;27;19971;-37
2021/06/15 07:40:22;;;;;;;;;;;;;;;24.69;37.00;99515.16;5133839;27;19920;-37
2021/06/15 07:42:47;;;;;;;;;;;;;;;24.26;38.17;99522.78;5133444;27;19911;-37
2021/06/15 07:45:13;;;;;;;;;;;;;;;24.03;38.91;99525.38;5133385;27;19984;-37
2021/06/15 07:47:38;;;;;;;;;;;;;;;24.71;37.82;99518.41;5132956;27;19921;-37
2021/06/15 07:50:04;;;;;;;;;;;;;;;23.93;38.83;99515.47;5114898;27;19917;-37
2021/06/15 07:52:29;;;;;;;;;;;;;;;24.31;38.31;99515.34;5133051;27;19919;-39
2021/06/15 07:54:54;;;;;;;;;;;;;;;25.18;36.77;99510.06;5133263;27;19919;-37
2021/06/15 07:57:20;;;;;;;;;;;;;;;24.52;37.62;99509.53;5133129;27;19920;-37
2021/06/15 07:59:45;;;;;;;;;;;;;;;24.67;37.57;99505.72;5132795;27;19918;-38
2021/06/15 08:02:10;;;;;;;;;;;;;;;24.15;37.79;99508.56;5133092;27;19922;-37
2021/06/15 08:04:36;;;;;;;;;;;;;;;24.09;37.73;99504.34;5133154;27;19911;-37
2021/06/15 08:07:01;;;;;;;;;;;;;;;24.14;37.54;99505.06;5133155;27;20009;-37
2021/06/15 08:09:26;;;;;;;;;;;;;;;24.67;37.17;99490.19;5133339;27;19934;-36
2021/06/15 08:11:52;;;;;;;;;;;;;;;24.63;37.17;99491.09;5132909;27;20039;-38
2021/06/15 08:14:17;;;;;;;;;;;;;;;25.15;36.60;99494.34;5133001;27;19926;-38
2021/06/15 08:16:42;;;;;;;;;;;;;;;25.54;36.82;99488.28;5142979;27;19922;-39
2021/06/15 08:19:07;;;;;;;;;;;;;;;25.86;35.81;99489.16;5153401;27;19912;-37
2021/06/15 08:21:33;;;;;;;;;;;;;;;25.17;35.92;99492.16;5146583;27;19911;-43
2021/06/15 08:23:58;;;;;;;;;;;;;;;24.04;37.59;99496.28;5133219;27;19918;-37
2021/06/15 08:26:23;;;;;;;;;;;;;;;24.29;36.60;99489.56;5132690;27;20382;-38
2021/06/15 08:28:49;;;;;;;;;;;;;;;25.19;35.86;99479.03;5132711;27;20331;-36
2021/06/15 08:31:14;;;;;;;;;;;;;;;25.90;34.17;99483.88;5113958;27;19968;-37
2021/06/15 08:33:39;;;;;;;;;;;;;;;26.29;33.60;99485.88;5132457;27;19990;-37
2021/06/15 08:36:04;;;;;;;;;;;;;;;25.73;34.75;99482.66;5132550;27;20002;-37
2021/06/15 08:38:30;;;;;;;;;;;;;;;25.83;34.83;99483.53;5132337;27;19912;-37
2021/06/15 08:40:55;;;;;;;;;;;;;;;25.34;35.18;99488.78;5132125;27;20393;-37
2021/06/15 08:43:21;;;;;;;;;;;;;;;24.76;36.58;99479.41;5132162;27;19915;-36
2021/06/15 08:45:46;;;;;;;;;;;;;;;24.82;36.96;99482.84;5132134;27;19988;-37
2021/06/15 08:48:11;;;;;;;;;;;;;;;24.95;36.93;99482.00;5132185;27;19919;-38
2021/06/15 08:50:38;;;;;;;;;;;;;;;25.96;35.33;99482.66;5132614;27;20048;-37
2021/06/15 08:53:03;;;;;;;;;;;;;;;24.75;36.60;99485.94;5132037;27;20279;-37
2021/06/15 08:55:29;;;;;;;;;;;;;;;24.27;37.20;99470.03;5132262;27;20371;-38
2021/06/15 08:58:00;;;;;;;;;;;;;;;23.36;38.99;99493.81;5132251;27;20021;-38
2021/06/15 09:00:25;;;;;;;;;;;;;;;23.62;38.46;99487.97;5113598;27;20431;-36
2021/06/15 09:02:50;;;;;;;;;;;;;;;23.90;38.68;99480.75;5131775;27;20486;-38
2021/06/15 09:05:19;;;;;;;;;;;;;;;23.53;39.26;99487.03;5132085;27;20051;-43
2021/06/15 09:07:57;;;;;;;;;;;;;;;23.56;39.24;99473.66;5152777;27;19911;-38
2021/06/15 09:10:25;;;;;;;;;;;;;;;24.61;37.48;99479.72;5151857;27;19911;-38
2021/06/15 09:12:51;;;;;;;;;;;;;;;25.10;36.22;99484.38;5152033;27;20048;-37
2021/06/15 09:15:18;;;;;;;;;;;;;;;24.84;37.07;99488.78;5152022;27;19987;-37
2021/06/15 09:17:45;;;;;;;;;;;;;;;25.29;36.26;99476.09;5152426;27;20409;-37
2021/06/15 09:20:17;;;;;;;;;;;;;;;24.85;37.05;99490.41;5152471;27;20552;-38
2021/06/15 09:22:43;;;;;;;;;;;;;;;24.39;36.94;99481.22;5135614;27;19918;-37
2021/06/15 09:25:11;;;;;;;;;;;;;;;24.56;36.99;99489.59;5131662;27;19940;-37
2021/06/15 09:27:36;;;;;;;;;;;;;;;25.46;35.90;99488.25;5131239;27;19911;-39
2021/06/15 09:30:08;;;;;;;;;;;;;;;25.75;35.23;99485.88;5131209;27;19923;-37
2021/06/15 09:32:44;;;;;;;;;;;;;;;25.05;36.46;99491.84;5131202;27;19911;-38
2021/06/15 09:35:22;;;;;;;;;;;;;;;24.53;36.88;99489.41;5131794;28;19915;-38
2021/06/15 09:37:56;;;;;;;;;;;;;;;23.47;38.92;99490.91;5131244;28;20424;-38
2021/06/15 09:40:33;;;;;;;;;;;;;;;23.65;38.78;99483.88;5131392;28;19911;-37
2021/06/15 09:43:03;;;;;;;;;;;;;;;23.48;38.65;99484.41;5131290;28;19916;-38
2021/06/15 09:45:28;;;;;;;;;;;;;;;23.94;38.31;99478.22;5131399;28;19911;-38
2021/06/15 09:47:54;;;;;;;;;;;;;;;23.58;38.85;99481.50;5132108;28;19918;-43
2021/06/15 09:50:22;;;;;;;;;;;;;;;23.56;39.32;99483.72;5132016;28;19935;-39
2021/06/15 09:52:47;;;;;;;;;;;;;;;24.02;38.17;99488.41;5131490;28;20339;-36
2021/06/15 09:55:12;;;;;;;;;;;;;;;23.92;38.12;99483.97;5131238;28;20002;-38
2021/06/15 09:57:40;;;;;;;;;;;;;;;24.73;36.74;99486.28;5131579;28;19916;-38
2021/06/15 10:00:11;;;;;;;;;;;;;;;24.54;37.90;99471.97;5131552;27;19946;-38
2021/06/15 10:02:46;;;;;;;;;;;;;;;24.73;37.50;99466.41;5131788;28;19915;-37
2021/06/15 10:05:21;;;;;;;;;;;;;;;25.48;36.35;99480.56;5131808;28;20010;-37
2021/06/15 10:07:46;;;;;;;;;;;;;;;24.74;36.23;99468.81;5130998;28;19917;-39
2021/06/15 10:10:11;;;;;;;;;;;;;;;24.69;36.57;99468.94;5131436;28;19998;-38
2021/06/15 10:12:36;;;;;;;;;;;;;;;23.92;37.34;99470.38;5131550;28;19947;-41
2021/06/15 10:15:03;;;;;;;;;;;;;;;24.17;37.80;99465.59;5109225;28;19924;-37
2021/06/15 10:17:28;;;;;;;;;;;;;;;25.16;35.73;99463.28;5111004;28;20002;-37
2021/06/15 10:19:53;;;;;;;;;;;;;;;25.23;36.15;99469.16;5110756;28;19957;-37
2021/06/15 10:22:19;;;;;;;;;;;;;;;25.42;34.86;99460.81;5096262;28;20046;-37
2021/06/15 10:24:44;;;;;;;;;;;;;;;25.87;34.97;99466.22;5090008;28;19919;-37
2021/06/15 10:27:10;;;;;;;;;;;;;;;26.06;32.89;99455.13;5090160;28;19924;-37
2021/06/15 10:29:36;;;;;;;;;;;;;;;25.63;33.06;99450.22;5089928;28;19977;-37
2021/06/15 10:32:08;;;;;;;;;;;;;;;24.89;34.55;99445.13;5090041;28;19998;-37
2021/06/15 10:34:47;;;;;;;;;;;;;;;25.31;33.93;99438.47;5090147;28;19916;-44
2021/06/15 10:37:30;;;;;;;;;;;;;;;25.63;33.57;99438.53;5093399;28;19920;-37
2021/06/15 10:39:55;;;;;;;;;;;;;;;25.79;33.17;99436.22;5094126;28;20387;-36
2021/06/15 10:42:21;;;;;;;;;;;;;;;25.78;33.14;99426.41;5092251;28;19938;-37
2021/06/15 10:44:50;;;;;;;;;;;;;;;26.59;32.06;99428.03;5094037;28;19919;-37
2021/06/15 10:47:15;;;;;;;;;;;;;;;26.96;31.53;99423.94;5092309;28;19919;-38
2021/06/15 10:49:59;;;;;;;;;;;;;;;27.54;31.20;99429.25;5094123;28;19916;-38
2021/06/15 10:52:25;;;;;;;;;;;;;;;27.35;30.80;99416.72;5094169;28;19919;-37
2021/06/15 10:54:50;;;;;;;;;;;;;;;27.54;31.42;99415.59;5093784;28;19912;-38
2021/06/15 10:57:18;;;;;;;;;;;;;;;27.75;31.05;99410.22;5093376;28;19927;-38
2021/06/15 11:00:03;;;;;;;;;;;;;;;27.21;31.62;99405.94;5093784;28;19916;-37
2021/06/15 11:02:31;;;;;;;;;;;;;;;26.57;31.25;99409.25;5093590;28;19912;-38
2021/06/15 11:04:56;;;;;;;;;;;;;;;26.27;32.21;99406.31;5093538;28;19981;-36
2021/06/15 11:07:41;;;;;;;;;;;;;;;26.78;32.33;99411.41;5091952;28;19915;-37
2021/06/15 11:10:06;;;;;;;;;;;;;;;27.83;30.81;99406.66;5093550;28;20352;-37
2021/06/15 11:12:33;;;;;;;;;;;;;;;27.67;30.30;99417.31;5093887;28;19923;-37
2021/06/15 11:15:17;;;;;;;;;;;;;;;27.04;31.17;99408.69;5091767;28;20349;-38
2021/06/15 11:17:43;;;;;;;;;;;;;;;27.97;30.76;99407.28;5111600;28;19916;-38
2021/06/15 11:20:09;;;;;;;;;;;;;;;28.40;30.51;99399.97;5113693;28;19955;-38
2021/06/15 11:22:34;;;;;;;;;;;;;;;27.48;31.39;99402.09;5113385;28;19991;-38
2021/06/15 11:25:03;;;;;;;;;;;;;;;27.18;31.83;99392.13;5113355;28;19912;-37
2021/06/15 11:27:28;;;;;;;;;;;;;;;27.90;31.29;99390.56;5112094;28;19991;-43
2021/06/15 11:29:54;;;;;;;;;;;;;;;27.64;31.54;99390.63;5113803;28;19950;-37
2021/06/15 11:32:19;;;;;;;;;;;;;;;27.22;31.54;99388.44;5113120;28;20380;-38
2021/06/15 11:35:03;;;;;;;;;;;;;;;27.09;31.99;99383.94;5113793;28;20435;-37
2021/06/15 11:37:37;;;;;;;;;;;;;;;27.69;31.85;99377.59;5113137;28;19916;-37
2021/06/15 11:40:16;;;;;;;;;;;;;;;27.68;31.11;99381.47;5112993;28;20236;-37
2021/06/15 11:42:42;;;;;;;;;;;;;;;28.42;29.70;99384.03;5118438;27;20291;-38
2021/06/15 11:45:14;;;;;;;;;;;;;;;27.61;30.75;99383.91;5121379;27;19911;-37
2021/06/15 11:47:47;;;;;;;;;;;;;;;27.85;30.35;99379.78;5120725;27;19911;-37
2021/06/15 11:50:13;;;;;;;;;;;;;;;27.87;30.63;99372.06;5122329;27;20479;-38
2021/06/15 11:52:42;;;;;;;;;;;;;;;28.20;31.07;99368.72;5129115;27;19954;-38
2021/06/15 11:55:08;;;;;;;;;;;;;;;28.21;30.12;99360.16;5131526;27;20480;-37
2021/06/15 11:57:33;;;;;;;;;;;;;;;28.67;29.05;99357.66;5132650;27;19998;-39
2021/06/15 11:59:58;;;;;;;;;;;;;;;28.81;29.42;99346.44;5133147;27;19986;-38
2021/06/15 12:02:23;;;;;;;;;;;;;;;29.30;28.83;99363.09;5133021;27;19923;-38
2021/06/15 12:05:01;;;;;;;;;;;;;;;28.54;29.50;99345.03;5133011;27;19911;-37
2021/06/15 12:07:27;;;;;;;;;;;;;;;28.65;29.33;99352.53;5132938;27;20359;-36
2021/06/15 12:10:06;;;;;;;;;;;;;;;28.76;27.99;99355.66;5132851;27;19980;-38
2021/06/15 12:12:50;;;;;;;;;;;;;;;29.48;28.01;99340.97;5133086;27;20331;-37
2021/06/15 12:15:22;;;;;;;;;;;;;;;29.27;27.38;99352.00;5131373;27;19927;-36
2021/06/15 12:17:48;;;;;;;;;;;;;;;29.03;28.23;99335.13;5113546;27;20387;-38
2021/06/15 12:20:23;;;;;;;;;;;;;;;29.42;27.80;99343.16;5111591;28;19922;-36
2021/06/15 12:22:48;;;;;;;;;;;;;;;29.37;27.92;99343.34;5110799;28;19998;-39
2021/06/15 12:25:14;;;;;;;;;;;;;;;29.16;27.40;99344.19;5111766;28;20006;-38
2021/06/15 12:27:39;;;;;;;;;;;;;;;29.17;27.90;99340.34;5111989;28;19994;-37
2021/06/15 12:30:04;;;;;;;;;;;;;;;29.05;27.57;99349.28;5111478;28;19950;-37
2021/06/15 12:32:43;;;;;;;;;;;;;;;28.51;28.66;99343.75;5111624;28;20324;-37
2021/06/15 12:35:18;;;;;;;;;;;;;;;29.19;28.22;99351.75;5111484;28;19947;-37
2021/06/15 12:37:43;;;;;;;;;;;;;;;28.95;28.26;99351.63;5111643;28;19989;-38
2021/06/15 12:40:09;;;;;;;;;;;;;;;29.33;27.77;99348.69;5112194;28;19911;-38
2021/06/15 12:42:34;;;;;;;;;;;;;;;28.64;28.33;99350.13;5110017;28;19912;-37
2021/06/15 12:45:00;;;;;;;;;;;;;;;27.95;28.69;99349.41;5111905;28;19912;-37
2021/06/15 12:47:27;;;;;;;;;;;;;;;27.86;28.53;99346.66;5117008;27;19955;-38
2021/06/15 12:49:53;;;;;;;;;;;;;;;27.87;28.25;99341.97;5121606;27;19927;-38